sensor_id;sensor_type;location;lat;lon;timestamp;temperature;humidity
65598;SHT31;52267;51.984;20.956;2023-02-22T00:01:41;4.44;82.79
65598;SHT31;52267;51.984;20.956;2023-02-22T00:04:37;4.41;82.83
65598;SHT31;52267;51.984;20.956;2023-02-22T00:07:07;4.37;82.77
65598;SHT31;52267;51.984;20.956;2023-02-22T00:09:35;4.35;82.83
65598;SHT31;52267;51.984;20.956;2023-02-22T00:12:02;4.32;82.87
65598;SHT31;52267;51.984;20.956;2023-02-22T00:14:29;4.28;82.93
65598;SHT31;52267;51.984;20.956;2023-02-22T00:16:56;4.27;82.89
65598;SHT31;52267;51.984;20.956;2023-02-22T00:19:25;4.28;82.93
65598;SHT31;52267;51.984;20.956;2023-02-22T00:21:55;4.26;83.08
65598;SHT31;52267;51.984;20.956;2023-02-22T00:24:23;4.23;83.17
65598;SHT31;52267;51.984;20.956;2023-02-22T00:26:51;4.24;83.19
65598;SHT31;52267;51.984;20.956;2023-02-22T00:29:23;4.24;83.23
65598;SHT31;52267;51.984;20.956;2023-02-22T00:31:51;4.25;83.34
65598;SHT31;52267;51.984;20.956;2023-02-22T00:34:18;4.22;83.34
65598;SHT31;52267;51.984;20.956;2023-02-22T00:36:46;4.20;83.38
65598;SHT31;52267;51.984;20.956;2023-02-22T00:39:14;4.16;83.52
65598;SHT31;52267;51.984;20.956;2023-02-22T00:41:41;4.15;83.45
65598;SHT31;52267;51.984;20.956;2023-02-22T00:44:09;4.14;83.37
65598;SHT31;52267;51.984;20.956;2023-02-22T00:46:37;4.07;83.40
65598;SHT31;52267;51.984;20.956;2023-02-22T00:49:04;4.01;83.47
65598;SHT31;52267;51.984;20.956;2023-02-22T00:51:31;3.97;83.48
65598;SHT31;52267;51.984;20.956;2023-02-22T00:53:59;3.94;83.44
65598;SHT31;52267;51.984;20.956;2023-02-22T00:56:26;3.93;83.40
65598;SHT31;52267;51.984;20.956;2023-02-22T00:58:54;3.91;83.37
65598;SHT31;52267;51.984;20.956;2023-02-22T01:01:21;3.90;83.40
65598;SHT31;52267;51.984;20.956;2023-02-22T01:03:49;3.87;83.41
65598;SHT31;52267;51.984;20.956;2023-02-22T01:06:16;3.84;83.45
65598;SHT31;52267;51.984;20.956;2023-02-22T01:08:44;3.82;83.47
65598;SHT31;52267;51.984;20.956;2023-02-22T01:11:13;3.78;83.53
65598;SHT31;52267;51.984;20.956;2023-02-22T01:13:42;3.74;83.76
65598;SHT31;52267;51.984;20.956;2023-02-22T01:16:13;3.71;83.73
65598;SHT31;52267;51.984;20.956;2023-02-22T01:18:40;3.68;83.74
65598;SHT31;52267;51.984;20.956;2023-02-22T01:21:07;3.66;83.78
65598;SHT31;52267;51.984;20.956;2023-02-22T01:23:34;3.61;83.92
65598;SHT31;52267;51.984;20.956;2023-02-22T01:26:01;3.58;83.95
65598;SHT31;52267;51.984;20.956;2023-02-22T01:28:31;3.54;83.71
65598;SHT31;52267;51.984;20.956;2023-02-22T01:30:59;3.51;83.82
65598;SHT31;52267;51.984;20.956;2023-02-22T01:33:28;3.48;84.02
65598;SHT31;52267;51.984;20.956;2023-02-22T01:35:55;3.45;84.02
65598;SHT31;52267;51.984;20.956;2023-02-22T01:38:22;3.43;83.96
65598;SHT31;52267;51.984;20.956;2023-02-22T01:40:49;3.41;84.01
65598;SHT31;52267;51.984;20.956;2023-02-22T01:43:21;3.38;84.04
65598;SHT31;52267;51.984;20.956;2023-02-22T01:46:05;3.37;84.07
65598;SHT31;52267;51.984;20.956;2023-02-22T01:48:52;3.35;84.11
65598;SHT31;52267;51.984;20.956;2023-02-22T01:51:28;3.30;84.11
65598;SHT31;52267;51.984;20.956;2023-02-22T01:56:47;3.24;84.25
65598;SHT31;52267;51.984;20.956;2023-02-22T01:59:22;3.21;84.24
65598;SHT31;52267;51.984;20.956;2023-02-22T02:01:50;3.15;84.31
65598;SHT31;52267;51.984;20.956;2023-02-22T02:04:18;3.12;84.29
65598;SHT31;52267;51.984;20.956;2023-02-22T02:06:51;3.09;84.25
65598;SHT31;52267;51.984;20.956;2023-02-22T02:09:30;3.06;84.24
65598;SHT31;52267;51.984;20.956;2023-02-22T02:12:15;3.04;84.28
65598;SHT31;52267;51.984;20.956;2023-02-22T02:14:46;3.01;84.21
65598;SHT31;52267;51.984;20.956;2023-02-22T02:17:16;2.98;84.22
65598;SHT31;52267;51.984;20.956;2023-02-22T02:22:53;2.89;84.35
65598;SHT31;52267;51.984;20.956;2023-02-22T02:35:10;2.80;84.56
65598;SHT31;52267;51.984;20.956;2023-02-22T02:37:47;2.77;84.62
65598;SHT31;52267;51.984;20.956;2023-02-22T02:43:28;2.78;84.53
65598;SHT31;52267;51.984;20.956;2023-02-22T02:46:09;2.74;84.56
65598;SHT31;52267;51.984;20.956;2023-02-22T02:48:53;2.71;84.56
65598;SHT31;52267;51.984;20.956;2023-02-22T02:51:29;2.70;84.53
65598;SHT31;52267;51.984;20.956;2023-02-22T02:54:02;2.66;84.53
65598;SHT31;52267;51.984;20.956;2023-02-22T02:56:31;2.64;84.48
65598;SHT31;52267;51.984;20.956;2023-02-22T02:58:58;2.59;84.44
65598;SHT31;52267;51.984;20.956;2023-02-22T03:07:31;2.45;84.52
65598;SHT31;52267;51.984;20.956;2023-02-22T03:10:14;2.43;84.49
65598;SHT31;52267;51.984;20.956;2023-02-22T03:13:04;2.40;84.43
65598;SHT31;52267;51.984;20.956;2023-02-22T03:18:17;2.31;84.47
65598;SHT31;52267;51.984;20.956;2023-02-22T03:21:30;2.22;84.61
65598;SHT31;52267;51.984;20.956;2023-02-22T03:24:17;2.14;84.84
65598;SHT31;52267;51.984;20.956;2023-02-22T03:26:54;2.13;84.82
65598;SHT31;52267;51.984;20.956;2023-02-22T03:29:37;2.11;84.69
65598;SHT31;52267;51.984;20.956;2023-02-22T03:32:09;2.04;84.60
65598;SHT31;52267;51.984;20.956;2023-02-22T03:34:44;1.96;84.57
65598;SHT31;52267;51.984;20.956;2023-02-22T03:37:19;1.90;84.57
65598;SHT31;52267;51.984;20.956;2023-02-22T03:39:54;1.87;84.45
65598;SHT31;52267;51.984;20.956;2023-02-22T03:42:28;1.82;84.35
65598;SHT31;52267;51.984;20.956;2023-02-22T03:45:01;1.77;84.40
65598;SHT31;52267;51.984;20.956;2023-02-22T03:47:37;1.73;84.40
65598;SHT31;52267;51.984;20.956;2023-02-22T03:50:17;1.64;84.56
65598;SHT31;52267;51.984;20.956;2023-02-22T03:52:50;1.60;84.66
65598;SHT31;52267;51.984;20.956;2023-02-22T03:55:18;1.59;84.64
65598;SHT31;52267;51.984;20.956;2023-02-22T03:57:47;1.57;84.56
65598;SHT31;52267;51.984;20.956;2023-02-22T04:00:20;1.52;84.55
65598;SHT31;52267;51.984;20.956;2023-02-22T04:02:50;1.49;84.53
65598;SHT31;52267;51.984;20.956;2023-02-22T04:05:18;1.45;84.52
65598;SHT31;52267;51.984;20.956;2023-02-22T04:07:45;1.39;84.50
65598;SHT31;52267;51.984;20.956;2023-02-22T04:10:12;1.35;84.52
65598;SHT31;52267;51.984;20.956;2023-02-22T04:12:41;1.32;84.49
65598;SHT31;52267;51.984;20.956;2023-02-22T04:15:20;1.27;84.43
65598;SHT31;52267;51.984;20.956;2023-02-22T04:17:49;1.21;84.45
65598;SHT31;52267;51.984;20.956;2023-02-22T04:20:17;1.19;84.45
65598;SHT31;52267;51.984;20.956;2023-02-22T04:22:45;1.17;84.46
65598;SHT31;52267;51.984;20.956;2023-02-22T04:25:13;1.15;84.43
65598;SHT31;52267;51.984;20.956;2023-02-22T04:27:40;1.12;84.49
65598;SHT31;52267;51.984;20.956;2023-02-22T04:30:07;1.09;84.57
65598;SHT31;52267;51.984;20.956;2023-02-22T04:32:36;1.09;84.57
65598;SHT31;52267;51.984;20.956;2023-02-22T04:35:04;1.09;84.56
65598;SHT31;52267;51.984;20.956;2023-02-22T04:37:32;1.06;84.57
65598;SHT31;52267;51.984;20.956;2023-02-22T04:40:00;1.02;84.64
65598;SHT31;52267;51.984;20.956;2023-02-22T04:42:29;1.01;84.65
65598;SHT31;52267;51.984;20.956;2023-02-22T04:44:56;1.01;84.63
65598;SHT31;52267;51.984;20.956;2023-02-22T04:47:23;1.02;84.59
65598;SHT31;52267;51.984;20.956;2023-02-22T04:49:50;1.02;84.63
65598;SHT31;52267;51.984;20.956;2023-02-22T04:52:17;0.99;84.65
65598;SHT31;52267;51.984;20.956;2023-02-22T04:54:44;0.95;84.73
65598;SHT31;52267;51.984;20.956;2023-02-22T04:57:12;0.95;84.74
65598;SHT31;52267;51.984;20.956;2023-02-22T04:59:39;0.97;84.70
65598;SHT31;52267;51.984;20.956;2023-02-22T05:02:06;0.95;84.77
65598;SHT31;52267;51.984;20.956;2023-02-22T05:04:35;0.96;84.81
65598;SHT31;52267;51.984;20.956;2023-02-22T05:07:04;0.96;84.76
65598;SHT31;52267;51.984;20.956;2023-02-22T05:09:31;0.94;84.74
65598;SHT31;52267;51.984;20.956;2023-02-22T05:11:58;0.95;84.78
65598;SHT31;52267;51.984;20.956;2023-02-22T05:14:25;0.95;84.80
65598;SHT31;52267;51.984;20.956;2023-02-22T05:16:55;0.98;84.84
65598;SHT31;52267;51.984;20.956;2023-02-22T05:19:23;0.98;84.92
65598;SHT31;52267;51.984;20.956;2023-02-22T05:21:53;0.96;85.15
65598;SHT31;52267;51.984;20.956;2023-02-22T05:24:21;0.99;85.31
65598;SHT31;52267;51.984;20.956;2023-02-22T05:26:48;1.03;85.45
65598;SHT31;52267;51.984;20.956;2023-02-22T05:29:16;1.10;85.41
65598;SHT31;52267;51.984;20.956;2023-02-22T05:31:43;1.16;85.39
65598;SHT31;52267;51.984;20.956;2023-02-22T05:34:11;1.20;85.43
65598;SHT31;52267;51.984;20.956;2023-02-22T05:36:38;1.24;85.48
65598;SHT31;52267;51.984;20.956;2023-02-22T05:39:05;1.29;85.54
65598;SHT31;52267;51.984;20.956;2023-02-22T05:41:32;1.33;85.51
65598;SHT31;52267;51.984;20.956;2023-02-22T05:43:59;1.38;85.61
65598;SHT31;52267;51.984;20.956;2023-02-22T05:46:28;1.41;85.74
65598;SHT31;52267;51.984;20.956;2023-02-22T05:48:55;1.45;85.76
65598;SHT31;52267;51.984;20.956;2023-02-22T05:51:22;1.48;85.78
65598;SHT31;52267;51.984;20.956;2023-02-22T05:53:49;1.52;85.82
65598;SHT31;52267;51.984;20.956;2023-02-22T05:56:24;1.56;85.90
65598;SHT31;52267;51.984;20.956;2023-02-22T05:58:54;1.60;85.87
65598;SHT31;52267;51.984;20.956;2023-02-22T06:01:21;1.64;85.83
65598;SHT31;52267;51.984;20.956;2023-02-22T06:03:49;1.66;85.91
65598;SHT31;52267;51.984;20.956;2023-02-22T06:06:17;1.70;85.94
65598;SHT31;52267;51.984;20.956;2023-02-22T06:08:48;1.73;85.97
65598;SHT31;52267;51.984;20.956;2023-02-22T06:11:16;1.77;85.98
65598;SHT31;52267;51.984;20.956;2023-02-22T06:13:48;1.83;85.93
65598;SHT31;52267;51.984;20.956;2023-02-22T06:16:18;1.85;85.96
65598;SHT31;52267;51.984;20.956;2023-02-22T06:18:47;1.88;85.95
65598;SHT31;52267;51.984;20.956;2023-02-22T06:21:15;1.90;85.93
65598;SHT31;52267;51.984;20.956;2023-02-22T06:23:42;1.90;85.96
65598;SHT31;52267;51.984;20.956;2023-02-22T06:26:09;1.91;85.99
65598;SHT31;52267;51.984;20.956;2023-02-22T06:28:36;1.93;85.99
65598;SHT31;52267;51.984;20.956;2023-02-22T06:31:03;1.98;85.96
65598;SHT31;52267;51.984;20.956;2023-02-22T06:33:31;1.96;86.02
65598;SHT31;52267;51.984;20.956;2023-02-22T06:35:58;1.99;86.12
65598;SHT31;52267;51.984;20.956;2023-02-22T06:38:25;2.06;86.09
65598;SHT31;52267;51.984;20.956;2023-02-22T06:40:53;2.09;86.02
65598;SHT31;52267;51.984;20.956;2023-02-22T06:43:21;2.12;86.01
65598;SHT31;52267;51.984;20.956;2023-02-22T06:45:50;2.14;86.03
65598;SHT31;52267;51.984;20.956;2023-02-22T06:48:18;2.19;86.00
65598;SHT31;52267;51.984;20.956;2023-02-22T06:50:45;2.25;85.98
65598;SHT31;52267;51.984;20.956;2023-02-22T06:53:12;2.30;85.97
65598;SHT31;52267;51.984;20.956;2023-02-22T06:55:39;2.35;85.90
65598;SHT31;52267;51.984;20.956;2023-02-22T06:58:06;2.36;85.87
65598;SHT31;52267;51.984;20.956;2023-02-22T07:00:33;2.38;85.88
65598;SHT31;52267;51.984;20.956;2023-02-22T07:03:01;2.42;85.85
65598;SHT31;52267;51.984;20.956;2023-02-22T07:05:30;2.47;85.82
65598;SHT31;52267;51.984;20.956;2023-02-22T07:08:01;2.52;85.82
65598;SHT31;52267;51.984;20.956;2023-02-22T07:10:33;2.58;85.72
65598;SHT31;52267;51.984;20.956;2023-02-22T07:13:01;2.60;85.61
65598;SHT31;52267;51.984;20.956;2023-02-22T07:15:31;2.68;85.58
65598;SHT31;52267;51.984;20.956;2023-02-22T07:18:00;2.73;85.49
65598;SHT31;52267;51.984;20.956;2023-02-22T07:20:28;2.80;85.36
65598;SHT31;52267;51.984;20.956;2023-02-22T07:22:56;2.86;85.30
65598;SHT31;52267;51.984;20.956;2023-02-22T07:25:23;2.89;85.27
65598;SHT31;52267;51.984;20.956;2023-02-22T07:27:51;2.94;85.19
65598;SHT31;52267;51.984;20.956;2023-02-22T07:30:22;3.00;85.09
65598;SHT31;52267;51.984;20.956;2023-02-22T07:32:58;3.05;85.04
65598;SHT31;52267;51.984;20.956;2023-02-22T07:35:33;3.12;84.90
65598;SHT31;52267;51.984;20.956;2023-02-22T07:38:09;3.18;84.93
65598;SHT31;52267;51.984;20.956;2023-02-22T07:40:36;3.23;84.90
65598;SHT31;52267;51.984;20.956;2023-02-22T07:43:09;3.27;84.79
65598;SHT31;52267;51.984;20.956;2023-02-22T07:45:50;3.31;84.63
65598;SHT31;52267;51.984;20.956;2023-02-22T07:48:21;3.37;84.50
65598;SHT31;52267;51.984;20.956;2023-02-22T07:50:50;3.42;84.40
65598;SHT31;52267;51.984;20.956;2023-02-22T07:53:19;3.50;84.39
65598;SHT31;52267;51.984;20.956;2023-02-22T07:56:02;3.56;84.22
65598;SHT31;52267;51.984;20.956;2023-02-22T07:58:31;3.61;84.03
65598;SHT31;52267;51.984;20.956;2023-02-22T08:00:58;3.67;83.89
65598;SHT31;52267;51.984;20.956;2023-02-22T08:03:29;3.72;83.58
65598;SHT31;52267;51.984;20.956;2023-02-22T08:06:02;3.77;83.52
65598;SHT31;52267;51.984;20.956;2023-02-22T08:08:31;3.81;83.35
65598;SHT31;52267;51.984;20.956;2023-02-22T08:10:58;3.84;83.09
65598;SHT31;52267;51.984;20.956;2023-02-22T08:13:25;3.88;83.01
65598;SHT31;52267;51.984;20.956;2023-02-22T08:15:53;3.89;82.86
65598;SHT31;52267;51.984;20.956;2023-02-22T08:18:21;3.93;82.86
65598;SHT31;52267;51.984;20.956;2023-02-22T08:20:50;3.97;82.70
65598;SHT31;52267;51.984;20.956;2023-02-22T08:23:20;4.01;82.45
65598;SHT31;52267;51.984;20.956;2023-02-22T08:25:50;4.05;82.24
65598;SHT31;52267;51.984;20.956;2023-02-22T08:28:19;4.09;82.00
65598;SHT31;52267;51.984;20.956;2023-02-22T08:30:49;4.12;81.93
65598;SHT31;52267;51.984;20.956;2023-02-22T08:33:17;4.18;81.89
65598;SHT31;52267;51.984;20.956;2023-02-22T08:35:45;4.21;81.64
65598;SHT31;52267;51.984;20.956;2023-02-22T08:38:21;4.22;81.28
65598;SHT31;52267;51.984;20.956;2023-02-22T08:40:50;4.26;81.14
65598;SHT31;52267;51.984;20.956;2023-02-22T08:43:18;4.30;81.16
65598;SHT31;52267;51.984;20.956;2023-02-22T08:45:47;4.29;80.72
65598;SHT31;52267;51.984;20.956;2023-02-22T08:48:16;4.34;80.93
65598;SHT31;52267;51.984;20.956;2023-02-22T08:50:43;4.37;80.78
65598;SHT31;52267;51.984;20.956;2023-02-22T08:53:12;4.39;80.66
65598;SHT31;52267;51.984;20.956;2023-02-22T08:55:40;4.41;80.29
65598;SHT31;52267;51.984;20.956;2023-02-22T08:58:08;4.44;80.29
65598;SHT31;52267;51.984;20.956;2023-02-22T09:00:35;4.51;80.11
65598;SHT31;52267;51.984;20.956;2023-02-22T09:03:05;4.53;79.64
65598;SHT31;52267;51.984;20.956;2023-02-22T09:05:36;4.58;79.30
65598;SHT31;52267;51.984;20.956;2023-02-22T09:08:03;4.64;78.99
65598;SHT31;52267;51.984;20.956;2023-02-22T09:10:31;4.70;78.90
65598;SHT31;52267;51.984;20.956;2023-02-22T09:13:00;4.70;78.07
65598;SHT31;52267;51.984;20.956;2023-02-22T09:15:29;4.70;77.52
65598;SHT31;52267;51.984;20.956;2023-02-22T09:17:57;4.77;77.80
65598;SHT31;52267;51.984;20.956;2023-02-22T09:20:26;4.78;77.56
65598;SHT31;52267;51.984;20.956;2023-02-22T09:22:54;4.82;78.16
65598;SHT31;52267;51.984;20.956;2023-02-22T09:25:22;4.86;78.32
65598;SHT31;52267;51.984;20.956;2023-02-22T09:27:50;4.86;77.80
65598;SHT31;52267;51.984;20.956;2023-02-22T09:30:21;4.85;77.21
65598;SHT31;52267;51.984;20.956;2023-02-22T09:32:58;4.85;76.93
65598;SHT31;52267;51.984;20.956;2023-02-22T09:35:28;4.81;76.39
65598;SHT31;52267;51.984;20.956;2023-02-22T09:37:56;4.80;76.65
65598;SHT31;52267;51.984;20.956;2023-02-22T09:40:26;4.81;76.84
65598;SHT31;52267;51.984;20.956;2023-02-22T09:43:06;4.78;76.46
65598;SHT31;52267;51.984;20.956;2023-02-22T09:48:58;4.76;76.31
65598;SHT31;52267;51.984;20.956;2023-02-22T09:51:39;4.74;76.24
65598;SHT31;52267;51.984;20.956;2023-02-22T09:54:28;4.67;75.97
65598;SHT31;52267;51.984;20.956;2023-02-22T09:57:03;4.64;75.91
65598;SHT31;52267;51.984;20.956;2023-02-22T09:59:41;4.60;75.79
65598;SHT31;52267;51.984;20.956;2023-02-22T10:03:18;4.53;75.69
65598;SHT31;52267;51.984;20.956;2023-02-22T10:05:53;4.47;75.80
65598;SHT31;52267;51.984;20.956;2023-02-22T10:08:29;4.46;76.06
65598;SHT31;52267;51.984;20.956;2023-02-22T10:11:03;4.43;75.72
65598;SHT31;52267;51.984;20.956;2023-02-22T10:16:33;4.37;75.98
65598;SHT31;52267;51.984;20.956;2023-02-22T10:25:32;4.48;75.79
65598;SHT31;52267;51.984;20.956;2023-02-22T10:28:38;4.52;75.82
65598;SHT31;52267;51.984;20.956;2023-02-22T10:31:07;4.54;75.61
65598;SHT31;52267;51.984;20.956;2023-02-22T10:33:45;4.54;75.59
65598;SHT31;52267;51.984;20.956;2023-02-22T10:36:15;4.56;75.52
65598;SHT31;52267;51.984;20.956;2023-02-22T10:38:54;4.53;75.31
65598;SHT31;52267;51.984;20.956;2023-02-22T10:41:30;4.51;75.65
65598;SHT31;52267;51.984;20.956;2023-02-22T10:44:00;4.51;75.51
65598;SHT31;52267;51.984;20.956;2023-02-22T10:46:28;4.51;75.60
65598;SHT31;52267;51.984;20.956;2023-02-22T10:49:00;4.52;75.50
65598;SHT31;52267;51.984;20.956;2023-02-22T10:51:32;4.51;75.29
65598;SHT31;52267;51.984;20.956;2023-02-22T10:57:13;4.56;75.39
65598;SHT31;52267;51.984;20.956;2023-02-22T10:59:34;4.61;75.22
65598;SHT31;52267;51.984;20.956;2023-02-22T11:05:01;4.57;74.31
65598;SHT31;52267;51.984;20.956;2023-02-22T11:07:31;4.55;74.61
65598;SHT31;52267;51.984;20.956;2023-02-22T11:10:06;4.55;74.49
65598;SHT31;52267;51.984;20.956;2023-02-22T11:12:36;4.54;73.54
65598;SHT31;52267;51.984;20.956;2023-02-22T11:17:42;4.61;73.88
65598;SHT31;52267;51.984;20.956;2023-02-22T11:22:52;4.63;73.68
65598;SHT31;52267;51.984;20.956;2023-02-22T11:25:26;4.65;73.26
65598;SHT31;52267;51.984;20.956;2023-02-22T11:31:08;4.68;72.84
65598;SHT31;52267;51.984;20.956;2023-02-22T11:33:39;4.69;72.90
65598;SHT31;52267;51.984;20.956;2023-02-22T11:36:29;4.67;73.03
65598;SHT31;52267;51.984;20.956;2023-02-22T11:47:55;4.20;73.58
65598;SHT31;52267;51.984;20.956;2023-02-22T11:53:11;4.06;73.52
65598;SHT31;52267;51.984;20.956;2023-02-22T11:58:40;3.82;73.33
65598;SHT31;52267;51.984;20.956;2023-02-22T12:01:49;3.81;73.51
65598;SHT31;52267;51.984;20.956;2023-02-22T12:15:38;3.57;73.50
65598;SHT31;52267;51.984;20.956;2023-02-22T12:18:37;3.52;73.16
65598;SHT31;52267;51.984;20.956;2023-02-22T12:21:25;3.50;73.33
65598;SHT31;52267;51.984;20.956;2023-02-22T12:24:03;3.48;73.30
65598;SHT31;52267;51.984;20.956;2023-02-22T12:26:35;3.49;73.40
65598;SHT31;52267;51.984;20.956;2023-02-22T12:29:14;3.51;73.25
65598;SHT31;52267;51.984;20.956;2023-02-22T12:32:16;3.44;72.65
65598;SHT31;52267;51.984;20.956;2023-02-22T12:35:02;3.44;73.49
65598;SHT31;52267;51.984;20.956;2023-02-22T12:40:45;3.49;73.09
65598;SHT31;52267;51.984;20.956;2023-02-22T12:43:24;3.50;72.84
65598;SHT31;52267;51.984;20.956;2023-02-22T12:46:02;3.56;73.21
65598;SHT31;52267;51.984;20.956;2023-02-22T13:01:00;3.83;71.96
65598;SHT31;52267;51.984;20.956;2023-02-22T13:03:40;3.88;72.00
65598;SHT31;52267;51.984;20.956;2023-02-22T13:09:32;3.82;69.90
65598;SHT31;52267;51.984;20.956;2023-02-22T13:15:57;3.84;71.41
65598;SHT31;52267;51.984;20.956;2023-02-22T13:18:50;3.85;71.50
65598;SHT31;52267;51.984;20.956;2023-02-22T13:21:58;3.85;71.26
65598;SHT31;52267;51.984;20.956;2023-02-22T13:25:00;3.89;71.46
65598;SHT31;52267;51.984;20.956;2023-02-22T13:27:34;3.92;71.55
65598;SHT31;52267;51.984;20.956;2023-02-22T13:30:05;3.92;71.37
65598;SHT31;52267;51.984;20.956;2023-02-22T13:33:09;3.92;71.21
65598;SHT31;52267;51.984;20.956;2023-02-22T13:45:26;3.77;70.45
65598;SHT31;52267;51.984;20.956;2023-02-22T13:48:16;3.75;70.57
65598;SHT31;52267;51.984;20.956;2023-02-22T13:56:24;3.67;70.38
65598;SHT31;52267;51.984;20.956;2023-02-22T13:58:59;3.65;70.52
65598;SHT31;52267;51.984;20.956;2023-02-22T14:06:56;3.62;69.96
65598;SHT31;52267;51.984;20.956;2023-02-22T14:18:14;3.57;69.70
65598;SHT31;52267;51.984;20.956;2023-02-22T14:20:41;3.53;69.06
65598;SHT31;52267;51.984;20.956;2023-02-22T14:23:43;3.51;69.59
65598;SHT31;52267;51.984;20.956;2023-02-22T14:28:45;3.47;69.23
65598;SHT31;52267;51.984;20.956;2023-02-22T14:31:26;3.46;69.46
65598;SHT31;52267;51.984;20.956;2023-02-22T14:39:31;3.38;68.99
65598;SHT31;52267;51.984;20.956;2023-02-22T14:42:20;3.34;68.88
65598;SHT31;52267;51.984;20.956;2023-02-22T14:47:44;3.29;69.52
65598;SHT31;52267;51.984;20.956;2023-02-22T14:56:40;3.17;69.11
65598;SHT31;52267;51.984;20.956;2023-02-22T14:58:42;3.13;68.83
65598;SHT31;52267;51.984;20.956;2023-02-22T15:01:20;3.13;69.02
65598;SHT31;52267;51.984;20.956;2023-02-22T15:04:21;3.10;68.84
65598;SHT31;52267;51.984;20.956;2023-02-22T15:06:55;3.09;69.06
65598;SHT31;52267;51.984;20.956;2023-02-22T15:09:25;3.11;69.21
65598;SHT31;52267;51.984;20.956;2023-02-22T15:14:33;3.05;68.95
65598;SHT31;52267;51.984;20.956;2023-02-22T15:17:07;3.00;68.65
65598;SHT31;52267;51.984;20.956;2023-02-22T15:19:42;2.97;68.63
65598;SHT31;52267;51.984;20.956;2023-02-22T15:22:22;2.94;68.64
65598;SHT31;52267;51.984;20.956;2023-02-22T15:25:03;2.92;68.91
65598;SHT31;52267;51.984;20.956;2023-02-22T15:27:33;2.91;68.90
65598;SHT31;52267;51.984;20.956;2023-02-22T15:30:07;2.89;68.93
65598;SHT31;52267;51.984;20.956;2023-02-22T15:32:48;2.87;68.97
65598;SHT31;52267;51.984;20.956;2023-02-22T15:35:19;2.84;68.89
65598;SHT31;52267;51.984;20.956;2023-02-22T15:38:04;2.78;68.34
65598;SHT31;52267;51.984;20.956;2023-02-22T15:40:44;2.74;68.87
65598;SHT31;52267;51.984;20.956;2023-02-22T15:45:54;2.63;68.23
65598;SHT31;52267;51.984;20.956;2023-02-22T15:48:22;2.60;68.72
65598;SHT31;52267;51.984;20.956;2023-02-22T15:51:13;2.57;69.00
65598;SHT31;52267;51.984;20.956;2023-02-22T15:53:46;2.51;68.66
65598;SHT31;52267;51.984;20.956;2023-02-22T15:56:16;2.48;69.02
65598;SHT31;52267;51.984;20.956;2023-02-22T15:58:52;2.46;69.02
65598;SHT31;52267;51.984;20.956;2023-02-22T16:01:26;2.44;68.95
65598;SHT31;52267;51.984;20.956;2023-02-22T16:03:54;2.41;69.10
65598;SHT31;52267;51.984;20.956;2023-02-22T16:06:31;2.37;69.13
65598;SHT31;52267;51.984;20.956;2023-02-22T16:09:07;2.34;69.10
65598;SHT31;52267;51.984;20.956;2023-02-22T16:11:48;2.30;68.95
65598;SHT31;52267;51.984;20.956;2023-02-22T16:14:26;2.25;68.71
65598;SHT31;52267;51.984;20.956;2023-02-22T16:22:37;2.09;68.39
65598;SHT31;52267;51.984;20.956;2023-02-22T16:27:49;1.98;68.52
65598;SHT31;52267;51.984;20.956;2023-02-22T16:30:26;1.97;68.89
65598;SHT31;52267;51.984;20.956;2023-02-22T16:33:04;1.97;68.79
65598;SHT31;52267;51.984;20.956;2023-02-22T16:35:39;1.96;68.90
65598;SHT31;52267;51.984;20.956;2023-02-22T16:38:17;1.92;68.51
65598;SHT31;52267;51.984;20.956;2023-02-22T16:40:47;1.89;68.33
65598;SHT31;52267;51.984;20.956;2023-02-22T16:43:21;1.91;68.48
65598;SHT31;52267;51.984;20.956;2023-02-22T16:45:51;1.90;68.53
65598;SHT31;52267;51.984;20.956;2023-02-22T16:48:21;1.91;68.68
65598;SHT31;52267;51.984;20.956;2023-02-22T16:50:52;1.88;68.48
65598;SHT31;52267;51.984;20.956;2023-02-22T16:53:24;1.88;68.73
65598;SHT31;52267;51.984;20.956;2023-02-22T16:55:54;1.87;68.73
65598;SHT31;52267;51.984;20.956;2023-02-22T16:58:28;1.85;68.70
65598;SHT31;52267;51.984;20.956;2023-02-22T17:00:59;1.84;68.75
65598;SHT31;52267;51.984;20.956;2023-02-22T17:03:27;1.83;68.86
65598;SHT31;52267;51.984;20.956;2023-02-22T17:05:55;1.83;68.82
65598;SHT31;52267;51.984;20.956;2023-02-22T17:08:23;1.82;68.84
65598;SHT31;52267;51.984;20.956;2023-02-22T17:10:51;1.76;68.45
65598;SHT31;52267;51.984;20.956;2023-02-22T17:13:23;1.70;68.84
65598;SHT31;52267;51.984;20.956;2023-02-22T17:15:55;1.71;68.86
65598;SHT31;52267;51.984;20.956;2023-02-22T17:18:26;1.64;68.83
65598;SHT31;52267;51.984;20.956;2023-02-22T17:20:59;1.65;69.06
65598;SHT31;52267;51.984;20.956;2023-02-22T17:23:28;1.66;69.00
65598;SHT31;52267;51.984;20.956;2023-02-22T17:25:58;1.62;68.46
65598;SHT31;52267;51.984;20.956;2023-02-22T17:28:29;1.60;68.78
65598;SHT31;52267;51.984;20.956;2023-02-22T17:31:00;1.62;68.97
65598;SHT31;52267;51.984;20.956;2023-02-22T17:33:29;1.64;68.97
65598;SHT31;52267;51.984;20.956;2023-02-22T17:36:00;1.63;69.12
65598;SHT31;52267;51.984;20.956;2023-02-22T17:38:30;1.63;69.14
65598;SHT31;52267;51.984;20.956;2023-02-22T17:41:00;1.62;69.02
65598;SHT31;52267;51.984;20.956;2023-02-22T17:43:29;1.59;69.02
65598;SHT31;52267;51.984;20.956;2023-02-22T17:45:59;1.56;68.94
65598;SHT31;52267;51.984;20.956;2023-02-22T17:48:34;1.54;68.54
65598;SHT31;52267;51.984;20.956;2023-02-22T17:51:06;1.52;68.54
65598;SHT31;52267;51.984;20.956;2023-02-22T17:53:37;1.47;68.55
65598;SHT31;52267;51.984;20.956;2023-02-22T17:56:11;1.44;68.47
65598;SHT31;52267;51.984;20.956;2023-02-22T17:58:45;1.46;68.55
65598;SHT31;52267;51.984;20.956;2023-02-22T18:01:23;1.48;68.57
65598;SHT31;52267;51.984;20.956;2023-02-22T18:04:00;1.52;68.60
65598;SHT31;52267;51.984;20.956;2023-02-22T18:06:30;1.50;68.35
65598;SHT31;52267;51.984;20.956;2023-02-22T18:09:00;1.46;67.89
65598;SHT31;52267;51.984;20.956;2023-02-22T18:11:36;1.41;67.97
65598;SHT31;52267;51.984;20.956;2023-02-22T18:14:06;1.40;68.40
65598;SHT31;52267;51.984;20.956;2023-02-22T18:16:38;1.39;68.37
65598;SHT31;52267;51.984;20.956;2023-02-22T18:19:08;1.39;68.58
65598;SHT31;52267;51.984;20.956;2023-02-22T18:21:37;1.38;68.67
65598;SHT31;52267;51.984;20.956;2023-02-22T18:24:05;1.33;68.37
65598;SHT31;52267;51.984;20.956;2023-02-22T18:26:35;1.32;68.56
65598;SHT31;52267;51.984;20.956;2023-02-22T18:29:05;1.32;68.58
65598;SHT31;52267;51.984;20.956;2023-02-22T19:03:33;0.56;67.33
65598;SHT31;52267;51.984;20.956;2023-02-22T19:06:05;0.53;67.29
65598;SHT31;52267;51.984;20.956;2023-02-22T19:08:35;0.49;67.20
65598;SHT31;52267;51.984;20.956;2023-02-22T19:11:18;0.45;67.17
65598;SHT31;52267;51.984;20.956;2023-02-22T19:13:50;0.44;67.20
65598;SHT31;52267;51.984;20.956;2023-02-22T19:16:22;0.43;67.16
65598;SHT31;52267;51.984;20.956;2023-02-22T19:19:01;0.46;67.73